Mirante, Brazil
Current Conditions -  °F | °C
As of 8:00 AM on Thursday 18 Dec 2014 (Local Time) from SBQV Reporting Station
Light Rain Light Rain  
Wind Chill: 68°   Ceiling: 400
Heat Index: 68°   Visibility: 1.2mi
Dew Point: 68°   Wind: 14mph
Humidity: 100%   Direction: 350°N
Pressure: 30.03"   Gusts: NA
Location:  14.25°S, 40.78°W
Report Text: SBQV 181100Z 35012KT 2000 -RADZ BKN004 OVC070 20/20 Q1017
Loading
Personal Weather Stations






























Interactive Weather Map New forecast layout! Learn more

10-Day Weather Forecast

Advertisements
Track Severe Weather on mobile